Time;durP1;ratioP1;P1;durP2;ratioP2;P2;SDS_P1;SDS_P2;PMS_P1;PMS_P2;Temp;Humidity;BMP_temperature;BMP_pressure;BME280_temperature;BME280_humidity;BME280_pressure;Samples;Min_cycle;Max_cycle;Signal;HPM_P1;HPM_P2
2021/05/30 00:01:08;;;;;;;6.00;5.40;;;;;;;10.58;76.53;99429.75;5006929;28;103110;-74
2021/05/30 00:03:36;;;;;;;7.90;6.30;;;;;;;10.14;79.40;99437.66;5006968;28;103795;-74
2021/05/30 00:06:04;;;;;;;7.60;6.30;;;;;;;9.74;81.59;99442.59;5002806;28;103659;-74
2021/05/30 00:08:32;;;;;;;7.67;6.87;;;;;;;10.05;79.82;99435.56;4984204;28;102612;-74
2021/05/30 00:11:00;;;;;;;9.07;7.13;;;;;;;9.76;81.35;99442.50;4986670;28;102520;-74
2021/05/30 00:13:28;;;;;;;7.20;6.50;;;;;;;9.84;80.92;99435.84;4986024;28;104258;-75
2021/05/30 00:15:56;;;;;;;7.53;6.40;;;;;;;9.95;80.21;99424.66;5000016;28;105428;-74
2021/05/30 00:18:24;;;;;;;6.20;5.60;;;;;;;10.12;78.88;99428.97;5001887;28;102563;-74
2021/05/30 00:20:51;;;;;;;6.93;5.63;;;;;;;10.25;78.07;99422.03;4986877;28;103261;-74
2021/05/30 00:23:19;;;;;;;7.73;6.40;;;;;;;10.26;77.65;99427.25;4986037;28;103451;-74
2021/05/30 00:25:46;;;;;;;6.87;6.17;;;;;;;10.15;78.67;99431.47;4986375;28;104202;-74
2021/05/30 00:28:14;;;;;;;8.27;6.87;;;;;;;9.58;82.48;99436.50;4986022;28;103053;-74
2021/05/30 00:30:41;;;;;;;9.17;6.50;;;;;;;9.73;81.10;99434.78;4986591;28;102933;-74
2021/05/30 00:33:09;;;;;;;7.40;5.40;;;;;;;9.86;80.37;99433.97;4986748;28;103152;-74
2021/05/30 00:35:37;;;;;;;5.80;5.30;;;;;;;9.78;80.62;99433.56;4986096;28;103697;-74
2021/05/30 00:38:05;;;;;;;5.03;4.40;;;;;;;9.79;80.33;99434.41;4986674;28;102979;-75
2021/05/30 00:40:32;;;;;;;5.00;4.60;;;;;;;9.81;80.45;99436.03;4987015;28;103084;-75
2021/05/30 00:43:00;;;;;;;4.37;3.97;;;;;;;9.79;79.99;99435.28;4975445;28;106627;-74
2021/05/30 00:45:28;;;;;;;4.03;3.60;;;;;;;9.99;77.91;99439.41;5005902;28;103683;-74
2021/05/30 00:47:55;;;;;;;4.73;4.23;;;;;;;9.80;80.13;99439.59;4999461;28;103258;-74
2021/05/30 00:50:23;;;;;;;4.20;3.40;;;;;;;9.64;81.50;99433.50;4985843;28;103775;-74
2021/05/30 00:52:51;;;;;;;5.20;4.67;;;;;;;9.86;79.54;99439.25;4975662;28;111593;-74
2021/05/30 00:55:18;;;;;;;4.97;4.47;;;;;;;9.99;78.01;99446.47;4954288;28;106421;-74
2021/05/30 00:57:46;;;;;;;6.50;5.80;;;;;;;9.74;80.16;99437.31;4948379;28;103320;-74
2021/05/30 01:00:15;;;;;;;5.63;4.57;;;;;;;9.78;79.43;99444.13;4966162;28;102639;-74
2021/05/30 01:02:43;;;;;;;4.93;4.43;;;;;;;9.96;77.80;99446.66;4972267;28;106163;-74
2021/05/30 01:05:11;;;;;;;7.27;4.83;;;;;;;9.67;80.23;99446.53;4968186;28;103587;-74
2021/05/30 01:07:41;;;;;;;6.17;5.40;;;;;;;9.59;80.05;99443.47;4971099;28;102826;-74
2021/05/30 01:10:26;;;;;;;5.57;5.00;;;;;;;9.39;81.31;99441.09;4972746;28;102986;-74
2021/05/30 01:12:54;;;;;;;5.67;4.63;;;;;;;9.44;80.58;99444.31;4985117;28;103191;-74
2021/05/30 01:15:22;;;;;;;4.83;4.10;;;;;;;9.54;79.82;99450.81;4984714;28;104358;-74
2021/05/30 01:17:53;;;;;;;3.90;3.50;;;;;;;9.57;80.19;99445.31;4985960;28;103176;-74
2021/05/30 01:20:22;;;;;;;3.97;3.57;;;;;;;9.58;79.71;99457.59;4986160;28;103062;-74
2021/05/30 01:22:51;;;;;;;4.23;3.83;;;;;;;9.60;79.84;99445.16;4985700;28;103205;-75
2021/05/30 01:25:22;;;;;;;3.60;3.30;;;;;;;9.70;79.28;99456.91;4985563;28;105018;-74
2021/05/30 01:27:51;;;;;;;4.63;3.50;;;;;;;9.64;80.05;99446.69;4985776;28;103113;-74
2021/05/30 01:30:20;;;;;;;4.10;3.70;;;;;;;9.62;79.90;99456.50;4967965;28;103844;-74
2021/05/30 01:32:48;;;;;;;4.20;3.67;;;;;;;9.67;79.63;99456.22;4985711;28;103829;-74
2021/05/30 01:35:16;;;;;;;4.13;3.20;;;;;;;9.75;78.72;99452.22;4983233;28;103960;-74
2021/05/30 01:37:44;;;;;;;3.53;3.23;;;;;;;9.72;79.57;99451.53;4983209;28;103044;-74
2021/05/30 01:40:13;;;;;;;4.00;3.70;;;;;;;9.68;80.31;99444.75;4985708;28;102692;-74
2021/05/30 01:42:41;;;;;;;3.30;3.00;;;;;;;9.70;79.51;99454.28;4985638;28;104003;-74
2021/05/30 01:45:10;;;;;;;4.00;3.67;;;;;;;9.26;83.18;99450.63;4984678;28;103792;-75
2021/05/30 01:47:38;;;;;;;4.10;3.70;;;;;;;9.11;84.19;99457.59;4984451;28;102880;-74
2021/05/30 01:50:09;;;;;;;3.73;3.43;;;;;;;9.26;82.49;99467.28;4983769;28;103028;-75
2021/05/30 01:52:37;;;;;;;3.60;3.13;;;;;;;9.52;80.88;99457.06;4983821;28;103944;-74
2021/05/30 01:55:06;;;;;;;4.77;3.60;;;;;;;9.58;80.43;99462.88;4990962;28;103732;-74
2021/05/30 01:57:44;;;;;;;3.53;2.73;;;;;;;9.66;79.99;99455.38;4977352;28;103535;-74
2021/05/30 02:00:13;;;;;;;3.63;3.27;;;;;;;9.56;81.38;99459.47;4985246;28;103210;-74
2021/05/30 02:02:44;;;;;;;4.40;3.73;;;;;;;9.52;81.12;99463.22;4977780;28;103901;-74
2021/05/30 02:05:13;;;;;;;3.97;3.33;;;;;;;9.61;80.25;99470.63;4984867;28;103462;-74
2021/05/30 02:07:40;;;;;;;3.53;3.13;;;;;;;9.59;80.24;99469.84;4984570;28;102672;-74
2021/05/30 02:10:11;;;;;;;4.07;3.63;;;;;;;9.60;80.23;99455.72;4984655;28;102847;-75
2021/05/30 02:12:39;;;;;;;3.83;3.53;;;;;;;9.38;82.38;99457.84;4984682;28;105456;-74
2021/05/30 02:15:09;;;;;;;4.00;3.30;;;;;;;9.44;80.97;99457.50;4997134;28;104350;-74
2021/05/30 02:17:37;;;;;;;5.33;3.50;;;;;;;9.39;81.65;99462.19;5004671;28;102816;-74
2021/05/30 02:20:06;;;;;;;3.90;3.60;;;;;;;9.30;81.91;99460.06;4988183;28;102706;-74
2021/05/30 02:22:33;;;;;;;3.63;3.30;;;;;;;9.35;80.80;99471.19;4984983;28;103312;-74
2021/05/30 02:25:01;;;;;;;3.37;3.07;;;;;;;9.33;81.71;99470.44;4983247;28;103777;-74
2021/05/30 02:27:28;;;;;;;3.63;3.33;;;;;;;9.30;81.30;99467.97;4971655;28;102985;-74
2021/05/30 02:29:56;;;;;;;3.67;3.27;;;;;;;9.29;80.81;99467.13;4966418;28;103138;-74
2021/05/30 02:32:24;;;;;;;5.47;4.13;;;;;;;8.84;83.91;99471.41;4964415;28;104446;-74
2021/05/30 02:34:52;;;;;;;3.10;2.80;;;;;;;8.90;83.92;99468.44;4965226;28;103256;-74
2021/05/30 02:37:20;;;;;;;4.40;3.70;;;;;;;9.10;82.29;99470.84;4983791;28;102641;-74
2021/05/30 02:39:48;;;;;;;5.30;4.23;;;;;;;8.77;83.84;99472.66;4984785;28;102747;-74
2021/05/30 02:42:15;;;;;;;4.67;4.17;;;;;;;8.81;83.43;99467.16;4984266;28;103769;-75
2021/05/30 02:44:43;;;;;;;3.73;3.43;;;;;;;8.76;83.96;99463.06;4984465;28;103667;-74
2021/05/30 02:47:10;;;;;;;4.20;3.70;;;;;;;8.56;85.17;99475.47;4983098;28;102955;-74
2021/05/30 02:49:39;;;;;;;4.07;3.37;;;;;;;8.70;84.61;99475.59;4975108;28;102874;-74
2021/05/30 02:52:07;;;;;;;3.60;3.30;;;;;;;8.77;83.98;99478.78;4971993;28;103082;-74
2021/05/30 02:54:34;;;;;;;3.93;3.53;;;;;;;8.87;83.26;99473.88;4994412;28;103699;-74
2021/05/30 02:57:02;;;;;;;3.93;3.37;;;;;;;8.85;83.28;99470.47;5004772;28;102904;-74
2021/05/30 02:59:29;;;;;;;3.10;2.77;;;;;;;8.90;82.76;99479.00;4996928;28;103416;-75
2021/05/30 03:01:56;;;;;;;4.30;3.70;;;;;;;8.83;83.24;99474.97;4975018;28;104118;-74
2021/05/30 03:04:24;;;;;;;4.37;3.13;;;;;;;8.88;82.45;99480.84;4964262;28;104970;-74
2021/05/30 03:06:53;;;;;;;3.63;3.33;;;;;;;9.01;81.40;99481.91;4977179;28;103021;-74
2021/05/30 03:09:20;;;;;;;5.73;3.90;;;;;;;9.09;80.66;99477.06;4983149;28;102983;-74
2021/05/30 03:11:48;;;;;;;4.00;3.60;;;;;;;9.07;82.16;99485.03;4964416;28;104115;-74
2021/05/30 03:14:15;;;;;;;3.77;3.47;;;;;;;8.85;83.87;99481.84;4974942;28;104968;-74
2021/05/30 03:16:42;;;;;;;3.70;3.30;;;;;;;8.98;82.23;99476.78;5003525;28;102551;-74
2021/05/30 03:19:10;;;;;;;3.90;3.60;;;;;;;8.92;82.93;99472.72;4986410;28;103164;-74
2021/05/30 03:21:39;;;;;;;4.47;3.70;;;;;;;8.94;83.30;99488.41;5003787;28;103949;-74
2021/05/30 03:24:08;;;;;;;4.30;3.90;;;;;;;8.89;83.46;99482.56;5006116;28;104621;-74
2021/05/30 03:26:36;;;;;;;4.03;3.63;;;;;;;8.72;84.32;99481.66;5007619;28;103102;-75
2021/05/30 03:29:04;;;;;;;4.30;3.50;;;;;;;8.68;84.16;99482.75;4974822;28;102811;-76
2021/05/30 03:31:31;;;;;;;4.33;3.93;;;;;;;8.50;85.42;99486.34;4987159;28;103108;-76
2021/05/30 03:33:59;;;;;;;3.77;3.23;;;;;;;8.49;86.17;99489.91;4987645;28;103159;-76
2021/05/30 03:36:27;;;;;;;3.60;3.00;;;;;;;8.77;83.75;99488.47;4987493;28;102975;-76
2021/05/30 03:39:01;;;;;;;3.10;2.90;;;;;;;8.84;83.56;99484.59;4987990;28;102982;-76
2021/05/30 03:41:32;;;;;;;4.00;3.60;;;;;;;8.81;83.02;99495.28;4986257;28;103941;-76
2021/05/30 03:44:00;;;;;;;3.37;3.07;;;;;;;8.48;86.13;99488.19;4987300;28;103783;-76
2021/05/30 03:46:28;;;;;;;3.87;3.37;;;;;;;8.72;83.92;99497.47;4968059;28;102981;-75
2021/05/30 03:48:55;;;;;;;3.57;3.27;;;;;;;8.66;84.87;99491.66;4986741;28;103079;-76
2021/05/30 03:51:23;;;;;;;2.90;2.60;;;;;;;8.85;83.62;99488.91;4978221;28;104120;-76
2021/05/30 03:53:50;;;;;;;2.60;2.40;;;;;;;8.96;82.30;99489.19;4958774;28;106161;-76
2021/05/30 03:56:18;;;;;;;4.33;3.43;;;;;;;8.91;82.57;99488.59;4978059;28;103231;-76
2021/05/30 03:58:46;;;;;;;5.77;3.93;;;;;;;8.53;84.90;99486.16;4979044;28;102950;-76
2021/05/30 04:01:14;;;;;;;3.80;3.50;;;;;;;8.60;84.45;99491.97;4986768;28;104026;-75
2021/05/30 04:03:41;;;;;;;3.97;3.20;;;;;;;8.67;84.16;99491.56;4980309;28;103960;-76
2021/05/30 04:06:09;;;;;;;4.93;3.00;;;;;;;8.83;83.17;99494.25;4984784;28;103004;-76
2021/05/30 04:08:36;;;;;;;4.50;3.53;;;;;;;8.87;82.90;99489.69;5001606;28;102830;-76
2021/05/30 04:11:04;;;;;;;4.40;3.90;;;;;;;8.98;82.25;99487.34;4990871;28;103895;-76
2021/05/30 04:13:34;;;;;;;4.17;3.67;;;;;;;8.89;83.09;99487.81;4968196;28;103253;-76
2021/05/30 04:16:03;;;;;;;9.60;5.40;;;;;;;8.86;83.53;99494.09;4986408;28;102699;-76
2021/05/30 04:18:31;;;;;;;9.07;4.90;;;;;;;9.01;82.17;99495.09;4986581;28;102641;-76
2021/05/30 04:20:58;;;;;;;8.73;4.90;;;;;;;9.00;82.91;99496.00;4986476;28;103844;-76
2021/05/30 04:23:25;;;;;;;6.97;5.27;;;;;;;9.09;82.28;99491.09;4986672;28;104660;-75
2021/05/30 04:25:53;;;;;;;6.67;4.20;;;;;;;9.26;81.83;99492.81;4986674;28;103087;-76
2021/05/30 04:28:20;;;;;;;4.93;3.70;;;;;;;9.34;81.54;99501.16;4980683;28;103463;-75
2021/05/30 04:30:48;;;;;;;5.77;4.27;;;;;;;9.29;82.77;99500.56;4947385;28;104809;-75
2021/05/30 04:33:16;;;;;;;4.47;3.63;;;;;;;9.40;81.93;99500.84;4957883;28;103213;-76
2021/05/30 04:35:44;;;;;;;3.77;3.07;;;;;;;9.54;80.97;99497.44;4986520;28;103378;-76
2021/05/30 04:38:12;;;;;;;4.30;3.50;;;;;;;9.63;80.79;99497.75;4986755;28;103048;-76
2021/05/30 04:40:39;;;;;;;3.43;2.87;;;;;;;9.74;79.92;99505.09;4986287;28;103764;-76
2021/05/30 04:43:06;;;;;;;2.80;2.60;;;;;;;9.85;79.56;99498.25;4986093;28;103097;-76
2021/05/30 04:45:34;;;;;;;2.90;2.60;;;;;;;9.89;80.30;99499.78;5004204;28;102835;-76
2021/05/30 04:48:01;;;;;;;5.80;3.53;;;;;;;9.90;80.79;99501.50;5004584;28;102637;-76
2021/05/30 04:50:30;;;;;;;3.23;2.60;;;;;;;10.02;80.54;99497.28;4996773;28;104203;-76
2021/05/30 04:52:57;;;;;;;3.77;2.83;;;;;;;10.12;79.90;99501.09;5003884;28;104009;-76
2021/05/30 04:55:25;;;;;;;4.23;2.80;;;;;;;10.22;79.41;99497.00;5000525;28;103214;-76
2021/05/30 04:57:53;;;;;;;3.90;3.50;;;;;;;10.26;79.37;99490.63;4967419;28;103133;-76
2021/05/30 05:00:20;;;;;;;4.27;3.50;;;;;;;10.24;79.99;99494.31;4986278;28;104360;-76
2021/05/30 05:02:48;;;;;;;4.40;3.03;;;;;;;10.37;79.64;99484.72;4986003;28;103933;-76
2021/05/30 05:05:15;;;;;;;5.10;3.57;;;;;;;10.35;80.55;99491.88;4972254;28;103315;-76
2021/05/30 05:07:44;;;;;;;5.87;3.40;;;;;;;10.53;79.45;99489.91;4979779;28;103106;-76
2021/05/30 05:10:13;;;;;;;3.93;3.10;;;;;;;10.67;79.04;99480.22;4976973;28;103433;-76
2021/05/30 05:12:40;;;;;;;4.17;3.63;;;;;;;10.77;77.94;99493.75;4985290;28;103920;-76
2021/05/30 05:15:09;;;;;;;3.37;3.07;;;;;;;10.80;78.48;99497.06;4997890;28;103232;-76
2021/05/30 05:17:37;;;;;;;4.20;3.73;;;;;;;10.85;78.01;99491.47;5012300;28;102768;-76
2021/05/30 05:20:06;;;;;;;3.70;3.40;;;;;;;10.91;76.71;99497.25;5004647;28;103989;-77
2021/05/30 05:22:34;;;;;;;4.23;3.83;;;;;;;10.91;77.25;99491.97;5005955;28;103644;-76
2021/05/30 05:25:03;;;;;;;4.63;4.17;;;;;;;10.67;78.99;99498.72;5005477;28;102848;-75
2021/05/30 05:27:31;;;;;;;4.23;3.83;;;;;;;10.83;78.32;99493.38;5002965;28;103165;-76
2021/05/30 05:29:58;;;;;;;4.10;3.80;;;;;;;11.10;76.83;99490.81;4985612;28;103380;-73
2021/05/30 05:32:26;;;;;;;3.80;3.40;;;;;;;11.26;75.44;99496.84;4989088;28;103780;-73
2021/05/30 05:34:53;;;;;;;4.57;3.67;;;;;;;11.47;74.15;99501.66;4986277;28;102634;-72
2021/05/30 05:37:21;;;;;;;4.37;3.97;;;;;;;11.33;74.84;99499.03;4998204;28;103277;-72
2021/05/30 05:39:48;;;;;;;6.30;4.13;;;;;;;11.03;75.46;99491.19;4999697;28;103373;-76
2021/05/30 05:42:17;;;;;;;6.60;4.37;;;;;;;11.34;74.70;99499.91;4987421;28;103742;-75
2021/05/30 05:44:44;;;;;;;3.87;3.57;;;;;;;11.32;75.35;99501.75;4997772;28;103142;-76
2021/05/30 05:47:11;;;;;;;3.90;3.50;;;;;;;11.67;74.56;99497.75;4993479;28;102900;-76
2021/05/30 05:49:39;;;;;;;4.13;3.73;;;;;;;11.76;74.28;99502.47;4984673;28;103858;-75
2021/05/30 05:52:07;;;;;;;4.80;3.80;;;;;;;11.64;72.31;99492.66;4995104;28;103729;-74
2021/05/30 05:54:47;;;;;;;4.07;3.63;;;;;;;11.80;73.21;99498.69;4968873;28;102899;-73
2021/05/30 05:57:14;;;;;;;4.40;4.00;;;;;;;12.01;73.53;99496.44;4967102;28;103042;-73
2021/05/30 05:59:43;;;;;;;2.90;2.70;;;;;;;12.16;73.06;99498.91;4985233;28;103940;-73
2021/05/30 06:02:12;;;;;;;3.53;3.23;;;;;;;12.43;71.80;99495.38;4985858;28;103043;-73
2021/05/30 06:04:42;;;;;;;3.83;3.53;;;;;;;12.59;70.54;99498.69;4985128;28;102921;-72
2021/05/30 06:07:10;;;;;;;3.33;3.03;;;;;;;12.35;71.74;99495.06;4975083;28;103408;-73
2021/05/30 06:09:38;;;;;;;5.17;4.43;;;;;;;12.36;72.46;99499.38;4983884;28;104284;-72
2021/05/30 06:12:06;;;;;;;4.87;4.40;;;;;;;11.87;73.64;99504.44;4966191;28;103732;-73
2021/05/30 06:14:34;;;;;;;4.00;3.70;;;;;;;12.48;73.39;99496.78;4972624;28;102521;-76
2021/05/30 06:17:03;;;;;;;3.73;3.43;;;;;;;12.85;71.26;99502.22;4986537;28;102737;-77
2021/05/30 06:19:32;;;;;;;3.60;3.30;;;;;;;13.14;70.00;99501.91;4983716;28;105318;-76
2021/05/30 06:22:01;;;;;;;4.70;3.47;;;;;;;13.33;70.05;99502.31;4984656;28;103697;-76
2021/05/30 06:24:29;;;;;;;3.70;3.40;;;;;;;13.45;69.67;99494.44;4985320;28;102511;-77
2021/05/30 06:26:56;;;;;;;3.30;3.00;;;;;;;13.56;69.52;99491.88;4985388;28;104530;-75
2021/05/30 06:29:24;;;;;;;5.80;4.70;;;;;;;13.47;69.38;99500.50;4984417;28;104125;-76
2021/05/30 06:31:52;;;;;;;5.70;4.73;;;;;;;13.08;70.44;99497.03;4984198;28;103615;-76
2021/05/30 06:34:25;;;;;;;6.47;4.73;;;;;;;12.80;71.08;99499.88;4985820;28;103014;-75
2021/05/30 06:36:53;;;;;;;5.80;4.70;;;;;;;12.46;71.79;99497.84;4983681;28;104547;-76
2021/05/30 06:39:21;;;;;;;5.37;4.87;;;;;;;12.86;71.90;99499.44;5002660;28;103986;-76
2021/05/30 06:41:48;;;;;;;3.83;3.53;;;;;;;13.46;70.16;99499.66;4996510;28;103341;-76
2021/05/30 06:44:16;;;;;;;4.80;4.30;;;;;;;13.58;69.54;99490.81;4984246;28;102992;-74
2021/05/30 06:46:44;;;;;;;4.80;4.30;;;;;;;13.71;69.48;99493.41;4965543;28;103286;-73
2021/05/30 06:49:11;;;;;;;4.93;4.43;;;;;;;13.73;66.55;99494.13;4984323;28;103898;-74
2021/05/30 06:51:40;;;;;;;5.10;4.60;;;;;;;12.94;69.83;99496.28;4982163;28;106415;-75
2021/05/30 06:54:09;;;;;;;4.30;3.70;;;;;;;13.62;69.99;99492.25;4985486;28;102945;-73
2021/05/30 06:56:36;;;;;;;6.53;4.50;;;;;;;13.40;70.32;99493.91;4966952;28;102806;-73
2021/05/30 06:59:04;;;;;;;4.23;3.93;;;;;;;14.06;68.60;99494.34;4985983;28;111122;-74
2021/05/30 07:01:31;;;;;;;3.13;2.90;;;;;;;14.58;66.42;99482.47;4987439;28;104821;-75
2021/05/30 07:03:59;;;;;;;4.70;4.30;;;;;;;14.38;66.31;99491.94;4988114;28;102945;-74
2021/05/30 07:06:27;;;;;;;4.40;4.00;;;;;;;14.01;67.70;99496.47;4988118;28;102780;-73
2021/05/30 07:08:55;;;;;;;4.93;4.20;;;;;;;13.78;67.95;99502.66;4983026;28;103876;-73
2021/05/30 07:11:23;;;;;;;4.77;4.37;;;;;;;14.72;66.83;99490.22;4978895;28;103860;-73
2021/05/30 07:13:50;;;;;;;3.83;3.53;;;;;;;15.22;64.29;99487.16;4989249;28;102907;-75
2021/05/30 07:16:18;;;;;;;6.67;3.87;;;;;;;14.73;63.51;99491.94;4996218;28;102759;-73
2021/05/30 07:18:46;;;;;;;4.70;3.97;;;;;;;15.02;65.28;99483.38;4989444;28;104322;-75
2021/05/30 07:21:13;;;;;;;4.53;4.13;;;;;;;15.21;62.90;99482.81;4982024;28;106570;-74
2021/05/30 07:23:41;;;;;;;5.10;4.63;;;;;;;15.18;63.65;99482.19;4968499;28;103155;-74
2021/05/30 07:26:09;;;;;;;5.30;3.73;;;;;;;15.44;63.74;99488.94;4988154;28;102927;-74
2021/05/30 07:28:37;;;;;;;4.57;4.17;;;;;;;15.86;62.60;99488.19;4987759;28;104066;-73
2021/05/30 07:31:04;;;;;;;3.87;3.47;;;;;;;16.35;61.17;99487.66;4987851;28;103665;-74
2021/05/30 07:33:32;;;;;;;4.07;3.67;;;;;;;16.85;57.72;99491.41;4988090;28;102861;-78
2021/05/30 07:36:00;;;;;;;3.67;3.37;;;;;;;16.54;56.36;99486.97;4987854;28;102889;-75
2021/05/30 07:38:27;;;;;;;7.30;3.60;;;;;;;17.07;56.56;99488.56;4981851;28;103812;-74
2021/05/30 07:40:55;;;;;;;6.00;3.40;;;;;;;17.26;54.69;99490.53;4970337;28;103728;-74
2021/05/30 07:43:23;;;;;;;4.70;3.43;;;;;;;17.00;57.18;99489.25;4984825;28;103257;-74
2021/05/30 07:45:51;;;;;;;5.47;4.00;;;;;;;17.58;57.30;99491.22;4987261;28;102898;-74
2021/05/30 07:48:19;;;;;;;5.80;3.40;;;;;;;17.80;54.40;99484.78;4973195;28;103694;-74
2021/05/30 07:50:47;;;;;;;4.03;3.73;;;;;;;18.06;53.51;99482.44;4983776;28;104073;-73
2021/05/30 07:53:15;;;;;;;4.87;3.47;;;;;;;18.75;54.17;99478.66;4991421;28;102742;-74
2021/05/30 07:55:44;;;;;;;3.23;3.00;;;;;;;18.80;52.34;99472.88;5007287;28;102929;-74
2021/05/30 07:58:12;;;;;;;3.73;3.17;;;;;;;17.85;52.49;99486.06;4979007;28;107688;-74
2021/05/30 08:00:40;;;;;;;2.90;2.70;;;;;;;17.41;50.70;99483.81;4986772;28;104552;-75
2021/05/30 08:03:08;;;;;;;3.40;2.93;;;;;;;18.02;50.79;99483.72;4987469;28;102823;-75
2021/05/30 08:05:36;;;;;;;3.30;2.40;;;;;;;18.27;49.84;99484.00;4987990;28;103187;-76
2021/05/30 08:08:04;;;;;;;3.35;2.40;;;;;;;18.43;48.69;99484.31;4968626;28;103989;-74
2021/05/30 08:10:32;;;;;;;2.88;2.53;;;;;;;19.06;47.44;99482.81;4961808;28;106028;-76
2021/05/30 08:12:59;;;;;;;4.25;3.10;;;;;;;18.55;49.31;99479.69;4972953;28;103039;-77
2021/05/30 08:15:27;;;;;;;3.40;3.10;;;;;;;17.42;50.00;99485.50;4985002;28;103070;-74
2021/05/30 08:17:56;;;;;;;3.65;3.30;;;;;;;18.92;48.98;99483.25;4968203;28;103903;-74
2021/05/30 08:20:25;;;;;;;3.22;2.92;;;;;;;19.32;48.21;99472.28;4977362;28;104747;-79
2021/05/30 08:22:52;;;;;;;3.20;2.65;;;;;;;20.39;47.78;99479.56;4991530;28;103604;-76
2021/05/30 08:25:20;;;;;;;3.20;2.90;;;;;;;19.42;47.88;99483.00;4986509;28;102860;-77
2021/05/30 08:27:48;;;;;;;2.97;2.60;;;;;;;18.64;46.18;99491.38;4981994;28;103291;-76
2021/05/30 08:30:18;;;;;;;3.33;2.40;;;;;;;19.46;44.62;99479.03;4966438;28;104654;-76
2021/05/30 08:32:46;;;;;;;3.78;2.75;;;;;;;19.51;44.75;99471.38;4966147;28;102972;-78
2021/05/30 08:35:16;;;;;;;2.72;2.42;;;;;;;20.55;42.82;99478.84;4966435;28;103114;-77
2021/05/30 08:37:44;;;;;;;4.93;2.53;;;;;;;20.13;43.41;99478.63;4946210;28;104999;-84
2021/05/30 08:40:14;;;;;;;3.13;2.42;;;;;;;21.27;44.38;99473.19;4964434;28;110813;-79
2021/05/30 08:42:42;;;;;;;2.60;2.40;;;;;;;21.85;41.36;99465.19;4967326;28;103114;-77
2021/05/30 08:45:10;;;;;;;3.30;2.30;;;;;;;22.61;39.93;99473.06;4977520;28;103526;-82
2021/05/30 08:47:38;;;;;;;2.60;2.40;;;;;;;21.85;41.72;99465.19;4966448;28;105284;-81
2021/05/30 08:50:06;;;;;;;3.13;2.70;;;;;;;20.93;43.04;99472.28;4957491;28;103751;-80
2021/05/30 08:52:39;;;;;;;2.35;2.15;;;;;;;22.31;39.85;99466.50;4960244;28;103354;-82
2021/05/30 08:55:09;;;;;;;3.55;3.25;;;;;;;20.63;43.24;99470.91;4974731;28;103516;-81
2021/05/30 08:57:36;;;;;;;3.15;2.85;;;;;;;20.73;46.41;99469.81;4969973;28;103643;-81
2021/05/30 09:00:06;;;;;;;3.75;2.47;;;;;;;19.76;45.67;99470.66;4955238;28;109973;-83
2021/05/30 09:02:34;;;;;;;3.25;2.90;;;;;;;19.45;45.40;99466.63;4970062;28;103147;-82
2021/05/30 09:05:04;;;;;;;2.95;2.65;;;;;;;19.72;45.51;99465.78;4956738;28;103186;-80
2021/05/30 09:07:43;;;;;;;5.00;2.60;;;;;;;20.50;42.72;99459.69;4963992;28;104528;-80
2021/05/30 09:10:18;;;;;;;2.70;2.50;;;;;;;20.36;44.57;99468.28;4973130;28;103744;-79
2021/05/30 09:13:07;;;;;;;3.67;2.25;;;;;;;19.14;43.85;99467.84;4969558;28;103217;-80
2021/05/30 09:15:52;;;;;;;2.80;2.58;;;;;;;18.75;44.47;99473.28;4975518;28;104003;-79
2021/05/30 09:18:22;;;;;;;3.58;2.60;;;;;;;20.12;43.39;99472.44;4982207;28;105357;-78
2021/05/30 09:20:54;;;;;;;2.80;2.30;;;;;;;19.34;42.31;99458.75;4994031;28;104906;-79
2021/05/30 09:23:30;;;;;;;2.88;2.63;;;;;;;19.20;45.35;99475.31;4970813;28;103005;-76
2021/05/30 09:26:12;;;;;;;2.20;2.00;;;;;;;20.62;39.88;99466.53;4982985;28;103119;-78
2021/05/30 09:28:41;;;;;;;2.85;2.40;;;;;;;21.59;39.36;99461.72;4970197;28;104339;-76
2021/05/30 09:31:09;;;;;;;2.60;2.25;;;;;;;21.79;37.76;99466.69;4995121;28;104207;-78
2021/05/30 09:33:37;;;;;;;2.10;1.90;;;;;;;19.38;40.21;99470.84;5002998;28;102976;-79
2021/05/30 09:36:05;;;;;;;2.05;1.58;;;;;;;20.01;39.67;99464.59;5002864;28;103540;-80
2021/05/30 09:38:38;;;;;;;2.15;2.05;;;;;;;19.91;40.83;99463.81;4985191;28;103769;-80
2021/05/30 09:41:08;;;;;;;1.63;1.52;;;;;;;22.14;41.01;99460.25;4980177;28;103644;-79
2021/05/30 09:43:46;;;;;;;2.97;2.33;;;;;;;22.93;37.67;99459.59;4976154;28;103065;-80
2021/05/30 09:46:14;;;;;;;2.30;2.10;;;;;;;22.20;39.32;99454.22;4982319;28;103097;-80
2021/05/30 09:48:56;;;;;;;2.30;2.10;;;;;;;20.44;38.75;99455.78;4981280;28;103806;-80
2021/05/30 09:51:31;;;;;;;2.28;2.08;;;;;;;21.62;40.85;99461.41;4983203;28;103712;-79
2021/05/30 09:54:01;;;;;;;2.67;2.38;;;;;;;22.34;40.20;99460.78;4981893;28;102997;-83
2021/05/30 09:56:41;;;;;;;3.13;2.47;;;;;;;21.94;38.49;99453.47;4972207;28;103585;-80
2021/05/30 09:59:10;;;;;;;3.40;2.25;;;;;;;23.11;35.19;99452.13;4982335;28;104312;-79
2021/05/30 10:01:54;;;;;;;4.68;1.95;;;;;;;23.46;34.53;99443.66;4969746;28;103780;-79
2021/05/30 10:04:24;;;;;;;8.05;2.17;;;;;;;22.80;36.06;99452.03;4974536;28;103252;-76
2021/05/30 10:06:54;;;;;;;2.22;2.03;;;;;;;22.29;35.64;99453.19;4975171;28;105166;-80
2021/05/30 10:09:23;;;;;;;3.05;1.95;;;;;;;23.00;35.06;99452.50;4969788;28;104716;-80
2021/05/30 10:11:50;;;;;;;2.55;1.90;;;;;;;23.65;36.00;99447.78;4980534;28;104170;-75
2021/05/30 10:14:18;;;;;;;2.65;2.28;;;;;;;24.29;35.00;99448.41;4978010;28;103812;-77
2021/05/30 10:16:46;;;;;;;3.38;2.10;;;;;;;23.53;34.28;99449.16;4976962;28;103075;-79
2021/05/30 10:19:16;;;;;;;2.42;2.22;;;;;;;24.44;33.93;99444.75;4966027;28;104949;-81
2021/05/30 10:21:47;;;;;;;2.05;1.83;;;;;;;24.25;35.81;99442.56;4947000;28;106234;-76
2021/05/30 10:24:21;;;;;;;2.85;2.17;;;;;;;24.77;33.93;99446.16;4982274;28;103271;-77
2021/05/30 10:27:11;;;;;;;4.30;2.50;;;;;;;21.15;37.26;99450.28;4969488;28;102934;-77
2021/05/30 10:29:39;;;;;;;3.63;2.40;;;;;;;21.75;36.99;99448.34;4975228;28;103881;-75
2021/05/30 10:32:18;;;;;;;2.10;1.95;;;;;;;21.57;35.28;99450.31;4982847;28;105791;-76
2021/05/30 10:35:11;;;;;;;3.92;2.20;;;;;;;21.60;35.96;99447.28;4972098;28;103322;-78
2021/05/30 10:37:44;;;;;;;2.40;2.20;;;;;;;21.07;37.95;99448.41;4989078;28;104338;-74
2021/05/30 10:40:42;;;;;;;2.90;2.38;;;;;;;19.83;38.37;99450.31;5005918;28;111972;-77
2021/05/30 10:43:31;;;;;;;2.45;2.00;;;;;;;19.07;39.40;99444.34;4897886;28;103718;-81
2021/05/30 10:46:03;;;;;;;2.58;2.38;;;;;;;20.15;39.74;99442.59;4988589;28;103253;-83
2021/05/30 10:48:32;;;;;;;4.13;2.58;;;;;;;19.90;39.85;99450.56;4987289;28;102770;-84
2021/05/30 10:51:41;;;;;;;2.28;2.08;;;;;;;19.23;39.58;99445.56;4994716;28;103481;-85
2021/05/30 10:54:13;;;;;;;3.35;2.10;;;;;;;18.76;39.13;99437.53;4979381;28;104187;-82
2021/05/30 10:56:46;;;;;;;2.58;2.13;;;;;;;19.10;39.57;99436.00;4977714;28;103907;-83
2021/05/30 10:59:36;;;;;;;2.55;2.35;;;;;;;20.54;38.63;99444.97;4963373;28;103047;-84
2021/05/30 11:02:13;;;;;;;2.55;2.13;;;;;;;21.06;35.51;99449.34;4990578;28;104403;-85
2021/05/30 11:04:41;;;;;;;3.08;2.00;;;;;;;21.69;34.86;99435.56;5004855;28;105138;-84
2021/05/30 11:07:41;;;;;;;2.83;2.53;;;;;;;21.52;36.08;99431.97;5001810;28;103391;-84
2021/05/30 11:10:11;;;;;;;3.28;2.38;;;;;;;20.93;34.70;99424.78;4984635;28;103191;-81
2021/05/30 11:12:58;;;;;;;2.85;2.00;;;;;;;21.10;36.39;99431.97;4982827;28;103981;-84
2021/05/30 11:15:35;;;;;;;3.97;2.53;;;;;;;20.34;36.85;99416.63;4986143;28;103697;-82
2021/05/30 11:18:04;;;;;;;2.67;2.28;;;;;;;20.83;37.89;99418.66;4981284;28;103354;-87
2021/05/30 11:20:48;;;;;;;2.90;2.35;;;;;;;19.95;40.20;99427.66;4968499;28;103146;-82
2021/05/30 11:23:18;;;;;;;3.10;2.45;;;;;;;21.21;37.12;99418.25;4969011;28;103882;-83
2021/05/30 11:25:48;;;;;;;4.22;2.40;;;;;;;20.15;37.80;99429.19;4965744;28;107096;-80
2021/05/30 11:28:17;;;;;;;2.65;2.25;;;;;;;20.19;40.23;99430.56;4977723;28;103295;-82
2021/05/30 11:30:58;;;;;;;2.80;2.38;;;;;;;21.28;37.61;99427.34;4973792;28;103097;-80
2021/05/30 11:33:31;;;;;;;3.35;2.03;;;;;;;21.17;35.67;99426.78;4993223;28;113288;-82
2021/05/30 11:36:01;;;;;;;2.92;2.05;;;;;;;22.54;35.16;99409.09;4985567;28;104763;-78
2021/05/30 11:38:37;;;;;;;2.38;1.90;;;;;;;22.88;33.25;99408.06;4974820;28;103089;-82
2021/05/30 11:41:13;;;;;;;2.10;1.88;;;;;;;23.32;34.14;99403.06;5005179;28;102951;-83